Time;durP1;ratioP1;P1;durP2;ratioP2;P2;SDS_P1;SDS_P2;PMS_P1;PMS_P2;Temp;Humidity;BMP_temperature;BMP_pressure;BME280_temperature;BME280_humidity;BME280_pressure;Samples;Min_cycle;Max_cycle;Signal;HPM_P1;HPM_P2
2024/02/12 00:00:18;;;;;;;6.65;6.00;;;7.60;1.00;;;;;;5109439;27;21266;-71
2024/02/12 00:02:46;;;;;;;6.57;5.97;;;7.70;1.00;;;;;;5098122;27;20242;-72
2024/02/12 00:05:13;;;;;;;6.50;5.93;;;7.70;1.00;;;;;;5105885;27;20563;-70
2024/02/12 00:07:42;;;;;;;7.33;6.07;;;7.60;1.00;;;;;;5107844;27;20963;-71
2024/02/12 00:10:11;;;;;;;5.53;5.00;;;7.60;1.00;;;;;;5107009;27;20450;-74
2024/02/12 00:12:38;;;;;;;5.68;4.95;;;7.60;1.00;;;;;;5110741;27;20457;-70
2024/02/12 00:15:06;;;;;;;5.53;4.90;;;7.60;1.00;;;;;;5108026;27;20562;-73
2024/02/12 00:17:34;;;;;;;6.20;5.63;;;7.60;1.00;;;;;;5101884;27;20474;-73
2024/02/12 00:20:06;;;;;;;5.10;4.60;;;7.70;1.00;;;;;;5106921;27;20962;-71
2024/02/12 00:22:34;;;;;;;4.82;4.40;;;7.60;1.00;;;;;;5106956;27;20293;-71
2024/02/12 00:25:03;;;;;;;5.23;4.73;;;7.60;1.00;;;;;;5105283;27;20255;-72
2024/02/12 00:27:31;;;;;;;5.00;4.60;;;7.60;1.00;;;;;;5109134;27;20496;-72
2024/02/12 00:29:58;;;;;;;5.20;4.80;;;7.60;1.00;;;;;;5108864;27;20912;-71
2024/02/12 00:32:26;;;;;;;4.60;4.20;;;7.60;1.00;;;;;;5106125;27;20485;-71
2024/02/12 00:34:54;;;;;;;5.10;4.60;;;7.50;1.00;;;;;;5106625;27;20728;-71
2024/02/12 00:37:25;;;;;;;5.43;4.80;;;7.60;1.00;;;;;;5105551;27;20904;-72
2024/02/12 00:39:52;;;;;;;4.97;4.47;;;7.60;1.00;;;;;;5104440;27;20453;-71
2024/02/12 00:42:19;;;;;;;5.25;4.78;;;7.60;1.00;;;;;;5105760;27;20525;-72
2024/02/12 00:44:46;;;;;;;5.60;5.10;;;7.60;1.00;;;;;;5107421;27;20271;-72
2024/02/12 00:47:13;;;;;;;4.47;4.07;;;7.50;1.00;;;;;;5106042;27;20587;-72
2024/02/12 00:49:42;;;;;;;4.40;4.00;;;7.50;1.00;;;;;;5107379;27;20538;-73
2024/02/12 00:52:10;;;;;;;3.83;3.53;;;7.50;1.00;;;;;;5105562;27;21080;-71
2024/02/12 00:54:41;;;;;;;4.07;3.30;;;7.50;1.00;;;;;;5107540;27;21198;-72
2024/02/12 00:57:09;;;;;;;4.77;4.27;;;7.50;1.00;;;;;;5105220;27;20449;-72
2024/02/12 00:59:38;;;;;;;3.90;3.50;;;7.50;1.00;;;;;;5106311;27;20451;-73
2024/02/12 01:02:06;;;;;;;4.07;3.78;;;7.50;1.00;;;;;;5105304;27;20479;-71
2024/02/12 01:04:34;;;;;;;4.10;3.70;;;7.50;1.00;;;;;;5106945;27;20330;-71
2024/02/12 01:07:01;;;;;;;4.40;4.00;;;7.50;1.00;;;;;;5107790;27;20496;-72
2024/02/12 01:09:28;;;;;;;3.83;3.50;;;7.50;1.00;;;;;;5105655;27;21031;-74
2024/02/12 01:11:57;;;;;;;4.20;3.80;;;7.50;1.00;;;;;;5105381;27;20499;-74
2024/02/12 01:14:24;;;;;;;6.43;3.50;;;7.60;1.00;;;;;;5105432;27;20457;-71
2024/02/12 01:16:51;;;;;;;4.23;3.63;;;7.60;1.00;;;;;;5106796;27;20893;-71
2024/02/12 01:19:19;;;;;;;3.80;3.40;;;7.50;1.00;;;;;;5105498;27;21343;-71
2024/02/12 01:21:46;;;;;;;4.03;3.63;;;7.60;1.00;;;;;;5103733;27;20541;-71
2024/02/12 01:24:14;;;;;;;3.83;3.53;;;7.60;1.00;;;;;;5105623;27;20513;-71
2024/02/12 01:26:41;;;;;;;4.67;4.27;;;7.60;1.00;;;;;;5108871;27;21163;-71
2024/02/12 01:29:11;;;;;;;4.90;4.07;;;7.60;1.00;;;;;;5105665;27;20493;-72
2024/02/12 01:31:38;;;;;;;4.82;3.80;;;7.60;1.00;;;;;;5108798;27;20726;-72
2024/02/12 01:34:06;;;;;;;4.23;3.60;;;7.60;1.00;;;;;;5111050;27;20232;-73
2024/02/12 01:36:35;;;;;;;3.83;3.53;;;7.60;1.00;;;;;;5108841;27;20569;-72
2024/02/12 01:39:03;;;;;;;3.93;3.50;;;7.50;1.00;;;;;;5109820;27;20576;-73
2024/02/12 01:41:30;;;;;;;3.87;3.47;;;7.50;1.00;;;;;;5102474;27;20473;-72
2024/02/12 01:43:56;;;;;;;3.85;3.55;;;7.50;1.00;;;;;;5103029;27;20561;-72
2024/02/12 01:46:25;;;;;;;3.60;3.30;;;7.50;1.00;;;;;;5107028;27;20361;-72
2024/02/12 01:48:53;;;;;;;4.25;3.85;;;7.50;1.00;;;;;;5108560;27;20533;-72
2024/02/12 01:51:20;;;;;;;3.03;2.83;;;7.50;1.00;;;;;;5107017;27;20754;-71
2024/02/12 01:53:50;;;;;;;5.23;3.63;;;7.50;1.00;;;;;;5106844;27;20258;-71
2024/02/12 01:56:17;;;;;;;4.23;3.93;;;7.40;1.00;;;;;;5107417;27;21133;-72
2024/02/12 01:58:45;;;;;;;4.25;3.85;;;7.40;1.00;;;;;;5110577;27;20490;-70
2024/02/12 02:01:14;;;;;;;4.03;3.73;;;7.40;1.00;;;;;;5105736;27;20245;-72
2024/02/12 02:03:42;;;;;;;3.97;3.67;;;7.40;1.00;;;;;;5108150;27;20461;-70
2024/02/12 02:06:12;;;;;;;5.10;4.63;;;7.40;1.00;;;;;;5106130;27;21265;-73
2024/02/12 02:08:40;;;;;;;4.22;3.88;;;7.40;1.00;;;;;;5106394;27;20454;-71
2024/02/12 02:11:08;;;;;;;4.45;4.07;;;7.40;1.00;;;;;;5098903;27;20289;-71
2024/02/12 02:13:35;;;;;;;4.68;3.50;;;7.40;1.00;;;;;;5107390;27;20287;-71
2024/02/12 02:16:02;;;;;;;4.77;4.37;;;7.40;1.00;;;;;;5105452;27;21047;-71
2024/02/12 02:18:30;;;;;;;5.22;4.72;;;7.40;1.00;;;;;;5102577;27;20465;-71
2024/02/12 02:21:00;;;;;;;4.97;4.53;;;7.40;1.00;;;;;;5108680;27;20243;-71
2024/02/12 02:23:28;;;;;;;4.72;4.43;;;7.40;1.00;;;;;;5104065;27;20326;-72
2024/02/12 02:25:56;;;;;;;5.00;4.60;;;7.40;1.00;;;;;;5106888;27;20236;-71
2024/02/12 02:28:24;;;;;;;4.90;4.40;;;7.40;1.00;;;;;;5105405;27;20326;-71
2024/02/12 02:30:52;;;;;;;4.95;4.40;;;7.40;1.00;;;;;;5109013;27;20242;-73
2024/02/12 02:33:19;;;;;;;4.55;4.10;;;7.40;1.00;;;;;;5107552;27;20238;-74
2024/02/12 02:35:46;;;;;;;4.72;4.32;;;7.30;1.00;;;;;;5108721;27;20344;-72
2024/02/12 02:38:13;;;;;;;5.03;4.55;;;7.30;1.00;;;;;;5108451;27;20322;-71
2024/02/12 02:40:40;;;;;;;4.83;4.40;;;7.40;1.00;;;;;;5104754;27;20254;-71
2024/02/12 02:43:08;;;;;;;4.80;4.40;;;7.40;1.00;;;;;;5106828;27;20984;-73
2024/02/12 02:45:35;;;;;;;5.23;4.40;;;7.40;1.00;;;;;;5104532;27;20500;-71
2024/02/12 02:48:04;;;;;;;5.20;4.72;;;7.40;1.00;;;;;;5109665;27;20450;-71
2024/02/12 02:50:32;;;;;;;4.97;4.57;;;7.40;1.00;;;;;;5106174;27;20318;-71
2024/02/12 02:52:59;;;;;;;5.17;4.70;;;7.50;1.00;;;;;;5107252;27;20295;-71
2024/02/12 02:55:28;;;;;;;5.63;4.97;;;7.40;1.00;;;;;;5109708;27;20492;-71
2024/02/12 02:57:55;;;;;;;4.60;4.20;;;7.40;1.00;;;;;;5106116;27;21102;-70
2024/02/12 03:00:25;;;;;;;5.30;4.90;;;7.40;1.00;;;;;;5109527;27;20296;-71
2024/02/12 03:02:53;;;;;;;5.30;4.80;;;7.40;1.00;;;;;;5112394;27;20228;-70
2024/02/12 03:05:20;;;;;;;5.23;4.73;;;7.40;1.00;;;;;;5108000;27;20995;-70
2024/02/12 03:07:48;;;;;;;4.87;4.47;;;7.50;1.00;;;;;;5110358;27;21005;-71
2024/02/12 03:10:16;;;;;;;4.97;4.57;;;7.50;1.00;;;;;;5108166;27;20521;-71
2024/02/12 03:12:45;;;;;;;5.90;5.30;;;7.50;1.00;;;;;;5109640;27;20442;-71
2024/02/12 03:15:14;;;;;;;5.97;5.47;;;7.50;1.00;;;;;;5107932;27;21178;-71
2024/02/12 03:17:43;;;;;;;5.70;5.20;;;7.60;1.00;;;;;;5109098;27;20460;-71
2024/02/12 03:20:11;;;;;;;5.63;5.07;;;7.60;1.00;;;;;;5106942;27;20276;-70
2024/02/12 03:22:40;;;;;;;6.77;6.03;;;7.60;1.00;;;;;;5110137;27;20459;-71
2024/02/12 03:25:09;;;;;;;6.40;5.90;;;7.60;1.00;;;;;;5111585;27;21034;-71
2024/02/12 03:27:37;;;;;;;6.80;6.10;;;7.60;1.00;;;;;;5110329;27;20449;-72
2024/02/12 03:30:05;;;;;;;6.70;6.10;;;7.60;1.00;;;;;;5109870;27;20461;-76
2024/02/12 03:32:32;;;;;;;7.90;7.10;;;7.60;1.00;;;;;;5107737;27;20241;-70
2024/02/12 03:35:00;;;;;;;8.03;6.03;;;7.60;1.00;;;;;;5108344;27;20549;-73
2024/02/12 03:37:27;;;;;;;6.80;6.17;;;7.70;1.00;;;;;;5110942;27;20828;-73
2024/02/12 03:39:54;;;;;;;7.55;6.90;;;7.70;1.00;;;;;;5104942;27;20545;-71
2024/02/12 03:42:22;;;;;;;7.33;6.57;;;7.70;1.00;;;;;;5104655;27;20288;-71
2024/02/12 03:44:49;;;;;;;7.10;6.40;;;7.70;1.00;;;;;;5103996;27;20464;-73
2024/02/12 03:47:18;;;;;;;6.83;6.23;;;7.70;1.00;;;;;;5108179;27;21361;-71
2024/02/12 04:00:44;;;;;;;7.40;6.70;;;7.60;1.00;;;;;;5104553;27;20685;-71
2024/02/12 04:03:13;;;;;;;8.07;7.37;;;7.60;1.00;;;;;;5108446;27;21012;-70
2024/02/12 04:05:40;;;;;;;8.23;7.30;;;7.60;1.00;;;;;;5105814;27;20566;-71
2024/02/12 04:08:09;;;;;;;7.78;6.53;;;7.60;1.00;;;;;;5106827;27;20466;-74
2024/02/12 04:10:37;;;;;;;8.27;7.47;;;7.70;1.00;;;;;;5110654;27;20252;-76
2024/02/12 04:13:05;;;;;;;7.53;6.83;;;7.70;1.00;;;;;;5110094;27;20494;-74
2024/02/12 04:15:32;;;;;;;8.80;7.90;;;7.80;1.00;;;;;;5107171;27;20466;-73
2024/02/12 04:17:59;;;;;;;9.40;8.47;;;7.80;1.00;;;;;;5104679;27;20444;-74
2024/02/12 04:20:27;;;;;;;8.77;7.87;;;7.80;1.00;;;;;;5105191;27;20468;-74
2024/02/12 04:22:54;;;;;;;8.83;7.73;;;7.80;1.00;;;;;;5110476;27;20517;-76
2024/02/12 04:25:23;;;;;;;9.60;7.97;;;7.90;1.00;;;;;;5105040;27;21075;-78
2024/02/12 04:27:51;;;;;;;11.50;9.77;;;7.90;1.00;;;;;;5107940;27;20463;-78
2024/02/12 04:30:20;;;;;;;11.07;9.30;;;8.00;1.00;;;;;;5106082;27;20476;-75
2024/02/12 04:32:47;;;;;;;11.07;9.87;;;8.00;1.00;;;;;;5111256;27;20453;-75
2024/02/12 04:35:16;;;;;;;11.03;9.93;;;8.00;1.00;;;;;;5111060;27;21335;-74
2024/02/12 04:37:45;;;;;;;12.90;11.03;;;8.10;1.00;;;;;;5110045;27;21179;-74
2024/02/12 04:40:12;;;;;;;10.60;9.60;;;8.10;1.00;;;;;;5107474;27;21289;-73
2024/02/12 04:42:41;;;;;;;11.87;10.47;;;8.20;1.00;;;;;;5106405;27;20438;-75
2024/02/12 04:45:10;;;;;;;11.93;10.73;;;8.20;1.00;;;;;;5109229;27;20550;-75
2024/02/12 04:47:40;;;;;;;12.53;10.90;;;8.20;1.00;;;;;;5106867;27;20470;-75
2024/02/12 04:50:08;;;;;;;12.27;10.93;;;8.20;1.00;;;;;;5106808;27;20464;-74
2024/02/12 04:52:35;;;;;;;10.93;9.90;;;8.20;1.00;;;;;;5103714;27;20541;-74
2024/02/12 04:55:02;;;;;;;10.57;9.53;;;8.20;1.00;;;;;;5108942;27;20470;-75
2024/02/12 04:57:30;;;;;;;12.18;10.93;;;8.20;1.00;;;;;;5108246;27;20488;-73
2024/02/12 04:59:59;;;;;;;13.47;12.07;;;8.20;1.00;;;;;;5110148;27;20230;-74
2024/02/12 05:02:26;;;;;;;12.53;10.90;;;8.30;1.00;;;;;;5108423;27;20495;-73
2024/02/12 05:04:53;;;;;;;13.40;11.50;;;8.30;1.00;;;;;;5100449;27;20568;-75
2024/02/12 05:07:20;;;;;;;13.97;10.90;;;8.30;1.00;;;;;;5108678;27;20508;-75
2024/02/12 05:09:48;;;;;;;11.13;10.03;;;8.20;1.00;;;;;;5107857;27;20465;-74
2024/02/12 05:12:15;;;;;;;13.13;10.60;;;8.20;1.00;;;;;;5102700;27;20466;-76
2024/02/12 05:14:42;;;;;;;11.93;9.37;;;8.20;1.00;;;;;;5108361;27;20460;-75
2024/02/12 05:17:11;;;;;;;11.07;9.50;;;8.20;1.00;;;;;;5109767;27;20990;-70
2024/02/12 05:22:35;;;;;;;12.30;11.00;;;8.20;1.00;;;;;;5101799;27;20457;-72
2024/02/12 05:25:02;;;;;;;13.77;10.60;;;8.20;1.00;;;;;;5107138;27;20493;-73
2024/02/12 05:27:29;;;;;;;12.87;11.07;;;8.20;1.00;;;;;;5105841;27;20460;-72
2024/02/12 05:29:56;;;;;;;12.05;10.35;;;8.10;1.00;;;;;;5103897;27;20456;-71
2024/02/12 05:32:28;;;;;;;11.77;10.57;;;8.10;1.00;;;;;;5105130;27;20232;-72
2024/02/12 05:34:56;;;;;;;12.10;10.10;;;8.10;1.00;;;;;;5110776;27;20542;-72
2024/02/12 05:37:23;;;;;;;13.95;10.70;;;8.10;1.00;;;;;;5106036;27;20450;-72
2024/02/12 05:39:50;;;;;;;12.97;10.50;;;8.00;1.00;;;;;;5104736;27;20246;-72
2024/02/12 05:42:17;;;;;;;13.83;9.93;;;8.00;1.00;;;;;;5103570;27;21291;-73
2024/02/12 05:44:45;;;;;;;14.57;10.10;;;8.00;1.00;;;;;;5109170;27;20674;-72
2024/02/12 05:47:12;;;;;;;14.90;12.50;;;8.10;1.00;;;;;;5107865;27;20456;-74
2024/02/12 05:49:44;;;;;;;13.57;10.65;;;8.10;1.00;;;;;;5107624;27;21392;-72
2024/02/12 05:52:12;;;;;;;12.30;10.50;;;8.20;1.00;;;;;;5107288;27;21155;-75
2024/02/12 05:54:39;;;;;;;16.67;12.43;;;8.20;1.00;;;;;;5105721;27;20454;-71
2024/02/12 05:57:06;;;;;;;12.07;9.65;;;8.20;1.00;;;;;;5104726;27;20457;-71
2024/02/12 05:59:34;;;;;;;14.00;11.20;;;8.20;1.00;;;;;;5106228;27;20246;-71
2024/02/12 06:02:02;;;;;;;14.73;11.60;;;8.20;1.00;;;;;;5104601;27;20481;-74
2024/02/12 06:04:30;;;;;;;13.27;10.43;;;8.20;1.00;;;;;;5105246;27;20489;-73
2024/02/12 06:06:58;;;;;;;14.35;12.05;;;8.20;1.00;;;;;;5107486;27;20558;-72
2024/02/12 06:09:26;;;;;;;14.67;12.30;;;8.20;1.00;;;;;;5105749;27;20234;-73
2024/02/12 06:11:53;;;;;;;16.23;11.63;;;8.30;1.00;;;;;;5107317;27;20539;-73
2024/02/12 06:14:22;;;;;;;18.20;13.13;;;8.30;1.00;;;;;;5103610;27;20560;-71
2024/02/12 06:16:49;;;;;;;17.90;14.03;;;8.30;1.00;;;;;;5102068;27;20626;-71
2024/02/12 06:19:16;;;;;;;25.23;20.70;;;8.40;1.00;;;;;;5104538;27;20588;-72
2024/02/12 06:21:45;;;;;;;19.43;14.50;;;8.30;1.00;;;;;;5103637;27;20977;-72
2024/02/12 06:24:13;;;;;;;16.43;13.37;;;8.30;1.00;;;;;;5104435;27;20550;-72
2024/02/12 06:26:43;;;;;;;16.40;13.03;;;8.40;1.00;;;;;;5086924;27;20511;-72
2024/02/12 06:29:11;;;;;;;15.57;12.87;;;8.40;1.00;;;;;;5104234;27;20963;-71
2024/02/12 06:31:42;;;;;;;19.67;13.57;;;8.40;1.00;;;;;;5102515;27;21295;-74
2024/02/12 06:34:11;;;;;;;22.47;15.33;;;8.50;1.00;;;;;;5107605;27;20478;-75
2024/02/12 06:36:39;;;;;;;18.20;13.57;;;8.50;1.00;;;;;;5111379;27;20529;-76
2024/02/12 06:39:07;;;;;;;19.77;13.97;;;8.50;1.00;;;;;;5111549;27;20488;-74
2024/02/12 06:41:36;;;;;;;20.50;13.83;;;8.50;1.00;;;;;;5108582;27;21083;-76
2024/02/12 06:44:03;;;;;;;15.77;12.73;;;8.50;1.00;;;;;;5111314;27;20478;-75
2024/02/12 06:46:31;;;;;;;19.10;13.03;;;8.50;1.00;;;;;;5090535;27;20643;-76
2024/02/12 06:48:58;;;;;;;16.23;13.10;;;8.40;1.00;;;;;;5105953;27;20504;-76
2024/02/12 06:51:25;;;;;;;16.30;12.13;;;8.50;1.00;;;;;;5095132;27;20457;-75
2024/02/12 06:53:53;;;;;;;17.20;13.20;;;8.40;1.00;;;;;;5107224;27;20462;-75
2024/02/12 06:56:21;;;;;;;16.27;12.53;;;8.40;1.00;;;;;;5109339;27;20471;-75
2024/02/12 06:58:50;;;;;;;17.57;12.60;;;8.40;1.00;;;;;;5110504;27;20538;-73
2024/02/12 07:01:17;;;;;;;15.67;11.93;;;8.40;1.00;;;;;;5108577;27;20500;-74
2024/02/12 07:03:46;;;;;;;15.83;12.33;;;8.40;1.00;;;;;;5107625;27;20489;-75
2024/02/12 07:06:13;;;;;;;15.63;12.83;;;8.40;1.00;;;;;;5104998;27;20537;-73
2024/02/12 07:08:41;;;;;;;19.57;14.27;;;8.40;1.00;;;;;;5106896;27;20619;-73
2024/02/12 07:11:08;;;;;;;16.53;11.83;;;8.30;1.00;;;;;;5108400;27;20942;-75
2024/02/12 07:13:35;;;;;;;18.50;12.20;;;8.30;1.00;;;;;;5104596;27;20557;-75
2024/02/12 07:16:05;;;;;;;17.87;11.50;;;8.30;1.00;;;;;;5103120;27;20447;-74
2024/02/12 07:18:32;;;;;;;16.60;11.27;;;8.30;1.00;;;;;;5105239;27;20461;-72
2024/02/12 07:20:59;;;;;;;16.33;11.43;;;8.20;1.00;;;;;;5107463;27;20464;-74
2024/02/12 07:23:26;;;;;;;16.63;12.30;;;8.20;1.00;;;;;;5108120;27;20486;-73
2024/02/12 07:25:54;;;;;;;20.30;12.90;;;8.20;1.00;;;;;;5108597;27;20474;-73
2024/02/12 07:28:22;;;;;;;15.33;11.37;;;8.30;1.00;;;;;;5108852;27;20453;-74
2024/02/12 07:30:49;;;;;;;17.53;11.57;;;8.30;1.00;;;;;;5099705;27;22786;-71
2024/02/12 07:33:20;;;;;;;14.47;10.80;;;8.30;1.00;;;;;;5106272;27;21403;-76
2024/02/12 07:35:47;;;;;;;16.00;11.50;;;8.30;1.00;;;;;;5104930;27;20576;-74
2024/02/12 07:38:14;;;;;;;13.67;11.30;;;8.30;1.00;;;;;;5109651;27;20469;-73
2024/02/12 07:40:41;;;;;;;12.13;10.80;;;8.30;1.00;;;;;;5107101;27;20453;-72
2024/02/12 07:43:08;;;;;;;11.87;10.13;;;8.40;1.00;;;;;;5106756;27;20458;-74
2024/02/12 07:45:36;;;;;;;14.40;10.57;;;8.30;1.00;;;;;;5107864;27;20515;-72
2024/02/12 07:48:03;;;;;;;14.10;10.80;;;8.30;1.00;;;;;;5108024;27;20464;-72
2024/02/12 07:50:32;;;;;;;18.33;12.33;;;8.30;1.00;;;;;;5110674;27;20511;-76
2024/02/12 07:52:59;;;;;;;13.93;11.20;;;8.30;1.00;;;;;;5108094;27;20488;-72
2024/02/12 07:55:27;;;;;;;14.67;10.30;;;8.30;1.00;;;;;;5105434;27;20845;-75
2024/02/12 07:57:53;;;;;;;12.60;9.90;;;8.30;1.00;;;;;;5108151;27;20476;-74
2024/02/12 08:00:20;;;;;;;15.07;11.00;;;8.30;1.00;;;;;;5101341;27;20544;-75
2024/02/12 08:02:47;;;;;;;14.40;11.30;;;8.30;1.00;;;;;;5109638;27;21446;-73
2024/02/12 08:05:16;;;;;;;19.63;12.97;;;8.40;1.00;;;;;;5107644;27;20585;-72
2024/02/12 08:07:45;;;;;;;14.30;10.10;;;8.40;1.00;;;;;;5109105;27;20449;-72
2024/02/12 08:10:13;;;;;;;14.07;10.43;;;8.40;1.00;;;;;;5106803;27;20540;-74
2024/02/12 08:12:41;;;;;;;12.43;10.90;;;8.40;1.00;;;;;;5102671;27;20619;-73
2024/02/12 08:15:09;;;;;;;12.30;10.10;;;8.50;1.00;;;;;;5106369;27;20555;-74
2024/02/12 08:17:36;;;;;;;12.80;9.80;;;8.40;1.00;;;;;;5104821;27;20470;-74
2024/02/12 08:20:04;;;;;;;14.20;10.10;;;8.40;1.00;;;;;;5105177;27;20458;-73
2024/02/12 08:22:31;;;;;;;12.90;9.60;;;8.40;1.00;;;;;;5105921;27;20483;-73
2024/02/12 08:24:59;;;;;;;12.10;9.83;;;8.40;1.00;;;;;;5108081;27;20420;-72
2024/02/12 08:27:27;;;;;;;17.00;11.70;;;8.40;1.00;;;;;;5108651;27;20469;-73
2024/02/12 08:29:56;;;;;;;15.90;9.90;;;8.40;1.00;;;;;;5106607;27;20519;-74
2024/02/12 08:32:23;;;;;;;16.37;11.97;;;8.40;1.00;;;;;;5104024;27;20512;-73
2024/02/12 08:34:51;;;;;;;17.77;11.50;;;8.40;1.00;;;;;;5106357;27;20561;-75
2024/02/12 08:37:18;;;;;;;14.20;10.40;;;8.50;1.00;;;;;;5110286;27;20938;-73
2024/02/12 08:39:45;;;;;;;12.37;10.37;;;8.40;1.00;;;;;;5108119;27;20479;-72
2024/02/12 08:42:14;;;;;;;14.87;12.30;;;8.50;1.00;;;;;;5108919;27;20480;-74
2024/02/12 08:44:41;;;;;;;14.47;10.37;;;8.50;1.00;;;;;;5104690;27;20594;-73
2024/02/12 08:47:08;;;;;;;16.23;11.03;;;8.40;1.00;;;;;;5105754;27;20462;-74
2024/02/12 08:49:35;;;;;;;14.50;10.50;;;8.50;1.00;;;;;;5106212;27;21558;-75
2024/02/12 08:52:02;;;;;;;13.10;10.50;;;8.50;1.00;;;;;;5105301;27;20489;-74
2024/02/12 08:54:30;;;;;;;15.63;10.47;;;8.50;1.00;;;;;;5085584;27;21017;-74
2024/02/12 08:56:57;;;;;;;14.37;9.67;;;8.50;1.00;;;;;;5107060;27;20547;-76
2024/02/12 08:59:25;;;;;;;14.23;10.20;;;8.50;1.00;;;;;;5103257;27;20945;-75
2024/02/12 09:01:53;;;;;;;15.13;11.20;;;8.50;1.00;;;;;;5108013;27;20554;-74
2024/02/12 09:04:20;;;;;;;13.57;10.17;;;8.60;1.00;;;;;;5104427;27;20555;-74
2024/02/12 09:06:47;;;;;;;15.30;10.10;;;8.60;1.00;;;;;;5105523;27;20450;-76
2024/02/12 09:09:17;;;;;;;14.50;11.00;;;8.60;1.00;;;;;;5108543;27;21055;-75
2024/02/12 09:11:44;;;;;;;13.27;9.63;;;8.70;1.00;;;;;;5106466;27;20442;-75
2024/02/12 09:14:10;;;;;;;17.27;10.43;;;8.70;1.00;;;;;;5106533;27;20487;-75
2024/02/12 09:16:39;;;;;;;14.83;9.27;;;8.70;1.00;;;;;;5105257;27;20457;-76
2024/02/12 09:19:07;;;;;;;13.10;9.60;;;8.60;1.00;;;;;;5103540;27;20470;-74
2024/02/12 09:21:34;;;;;;;15.77;11.30;;;8.60;1.00;;;;;;5097662;27;20476;-76
2024/02/12 09:24:02;;;;;;;13.10;9.30;;;8.60;1.00;;;;;;5102544;27;20452;-76
2024/02/12 09:26:29;;;;;;;15.57;8.70;;;8.70;1.00;;;;;;5099097;27;20463;-76
2024/02/12 09:28:56;;;;;;;11.13;7.73;;;8.70;1.00;;;;;;5101718;27;20529;-77
2024/02/12 09:31:24;;;;;;;13.33;8.90;;;8.70;1.00;;;;;;5104327;27;20477;-76
2024/02/12 09:33:53;;;;;;;10.40;8.93;;;8.70;1.00;;;;;;5104830;27;20464;-77
2024/02/12 09:36:20;;;;;;;13.20;8.57;;;8.70;1.00;;;;;;5094462;27;20469;-77
2024/02/12 09:38:47;;;;;;;9.23;7.63;;;8.80;1.00;;;;;;5103641;27;20541;-78
2024/02/12 09:41:17;;;;;;;11.77;8.10;;;8.70;1.00;;;;;;5108302;27;20992;-76
2024/02/12 09:43:44;;;;;;;9.73;7.70;;;8.70;1.00;;;;;;5106874;27;20443;-74
2024/02/12 09:46:15;;;;;;;10.67;8.83;;;8.70;1.00;;;;;;5107771;27;20442;-77
2024/02/12 09:48:42;;;;;;;9.97;7.17;;;8.70;1.00;;;;;;5108530;27;20485;-78
2024/02/12 09:51:14;;;;;;;9.43;7.50;;;8.80;1.00;;;;;;5107194;27;20471;-77
2024/02/12 09:53:43;;;;;;;8.37;6.90;;;8.80;1.00;;;;;;5105748;27;20481;-77
2024/02/12 09:56:12;;;;;;;11.03;7.17;;;8.80;1.00;;;;;;5106488;27;20489;-75
2024/02/12 09:58:41;;;;;;;7.63;6.80;;;8.80;1.00;;;;;;5105442;27;20469;-77
2024/02/12 10:01:10;;;;;;;9.00;7.07;;;8.80;1.00;;;;;;5108122;27;20470;-78
2024/02/12 10:03:40;;;;;;;9.80;7.30;;;8.80;1.00;;;;;;5102618;27;21031;-77
2024/02/12 10:06:07;;;;;;;8.00;7.20;;;8.80;1.00;;;;;;5104627;27;20438;-76
2024/02/12 10:08:37;;;;;;;8.53;6.80;;;8.70;1.00;;;;;;5106427;27;20835;-77
2024/02/12 10:11:06;;;;;;;7.97;7.17;;;8.80;1.00;;;;;;5104169;27;20493;-76
2024/02/12 10:13:33;;;;;;;8.33;6.17;;;8.90;1.00;;;;;;5105379;27;20462;-77
2024/02/12 10:16:01;;;;;;;7.97;6.63;;;8.90;1.00;;;;;;5104616;27;20517;-76
2024/02/12 10:18:28;;;;;;;6.60;5.83;;;8.90;1.00;;;;;;5106067;27;20834;-76
2024/02/12 10:20:55;;;;;;;10.77;9.73;;;9.00;1.00;;;;;;5105907;27;20580;-76
2024/02/12 10:23:22;;;;;;;7.60;5.80;;;9.00;1.00;;;;;;5106122;27;20823;-76
2024/02/12 10:25:52;;;;;;;7.37;6.60;;;9.10;1.00;;;;;;5106394;27;20472;-77
2024/02/12 10:28:21;;;;;;;11.97;7.27;;;9.10;1.00;;;;;;5106831;27;20497;-77
2024/02/12 10:30:49;;;;;;;6.00;5.40;;;9.10;1.00;;;;;;5105245;27;20460;-76
2024/02/12 10:33:21;;;;;;;7.17;6.47;;;9.10;1.00;;;;;;5107730;27;21260;-78
2024/02/12 10:35:51;;;;;;;8.50;7.60;;;9.20;1.00;;;;;;5103178;27;20430;-75
2024/02/12 10:38:18;;;;;;;11.07;8.37;;;9.30;1.00;;;;;;5105120;27;20524;-77
2024/02/12 10:41:04;;;;;;;7.93;7.13;;;9.60;1.00;;;;;;5105427;27;20457;-76
2024/02/12 10:43:32;;;;;;;7.87;6.60;;;9.80;1.00;;;;;;5101910;27;20829;-76
2024/02/12 10:46:01;;;;;;;7.43;6.60;;;10.00;1.00;;;;;;5103479;27;20458;-76
2024/02/12 10:48:30;;;;;;;8.03;6.00;;;10.10;1.00;;;;;;5106035;27;20461;-77
2024/02/12 10:50:58;;;;;;;8.90;6.33;;;10.30;1.00;;;;;;5104143;27;20481;-76
2024/02/12 10:53:30;;;;;;;7.20;6.33;;;10.60;1.00;;;;;;5101847;27;20535;-79
2024/02/12 10:55:57;;;;;;;7.77;6.30;;;10.60;1.00;;;;;;5106451;27;20454;-75
2024/02/12 10:58:26;;;;;;;8.43;6.30;;;10.30;1.00;;;;;;5099456;27;20560;-75
2024/02/12 11:00:55;;;;;;;8.50;6.27;;;10.10;1.00;;;;;;5104875;27;20921;-74
2024/02/12 11:03:32;;;;;;;8.03;5.97;;;9.90;1.00;;;;;;5102387;27;20529;-76
2024/02/12 11:06:02;;;;;;;8.03;5.90;;;9.90;1.00;;;;;;5105594;27;20449;-76
2024/02/12 11:08:29;;;;;;;6.57;5.97;;;9.80;1.00;;;;;;5104619;27;20470;-75
2024/02/12 11:11:03;;;;;;;6.73;6.17;;;9.80;1.00;;;;;;5101416;27;20465;-75
2024/02/12 11:13:43;;;;;;;8.17;6.53;;;9.80;1.00;;;;;;5101547;27;21288;-76
2024/02/12 11:16:13;;;;;;;7.10;6.30;;;9.80;1.00;;;;;;5103547;27;20457;-74
2024/02/12 11:18:40;;;;;;;7.47;5.90;;;9.80;1.00;;;;;;5104862;27;20466;-78
2024/02/12 11:21:08;;;;;;;7.20;6.20;;;9.90;1.00;;;;;;5100852;27;20521;-75
2024/02/12 11:23:40;;;;;;;7.90;6.10;;;10.00;1.00;;;;;;5103582;27;21027;-75
2024/02/12 11:26:07;;;;;;;7.93;6.10;;;10.20;1.00;;;;;;5108163;27;21036;-73
2024/02/12 11:28:36;;;;;;;8.17;6.27;;;10.40;1.00;;;;;;5107818;27;20506;-75
2024/02/12 11:31:05;;;;;;;7.93;6.63;;;10.50;1.00;;;;;;5105351;27;21130;-75
2024/02/12 11:33:32;;;;;;;8.53;7.70;;;10.60;1.00;;;;;;5102852;27;21072;-75
2024/02/12 11:36:10;;;;;;;7.70;6.60;;;10.70;1.00;;;;;;5105048;27;20465;-74
2024/02/12 11:38:38;;;;;;;9.50;7.73;;;10.60;1.00;;;;;;5105626;27;20536;-74
2024/02/12 11:41:06;;;;;;;8.93;7.63;;;10.40;1.00;;;;;;5106431;27;20470;-73
2024/02/12 11:43:33;;;;;;;7.57;6.80;;;10.30;1.00;;;;;;5106351;27;20480;-74
2024/02/12 11:46:02;;;;;;;7.90;7.10;;;10.10;1.00;;;;;;5105316;27;20458;-73
2024/02/12 11:48:32;;;;;;;8.00;6.43;;;10.00;1.00;;;;;;5105030;27;20463;-75
2024/02/12 11:50:59;;;;;;;7.17;6.30;;;10.00;1.00;;;;;;5107347;27;21257;-76
2024/02/12 11:53:26;;;;;;;8.80;6.57;;;9.90;1.00;;;;;;5106476;27;20535;-75
2024/02/12 11:55:54;;;;;;;8.97;7.90;;;9.90;1.00;;;;;;5105124;27;20542;-76
2024/02/12 11:58:21;;;;;;;8.70;6.60;;;9.90;1.00;;;;;;5106953;27;20582;-77
2024/02/12 12:00:51;;;;;;;8.30;6.50;;;10.00;1.00;;;;;;5109543;27;20493;-75
2024/02/12 12:03:18;;;;;;;8.23;6.97;;;10.10;1.00;;;;;;5106219;27;20490;-76
2024/02/12 12:05:49;;;;;;;7.53;6.80;;;10.30;1.00;;;;;;5108034;27;20542;-76
2024/02/12 12:08:16;;;;;;;8.77;7.87;;;10.20;1.00;;;;;;5105893;27;20561;-75
2024/02/12 12:10:43;;;;;;;8.17;7.33;;;10.30;1.00;;;;;;5106256;27;21296;-77
2024/02/12 12:13:10;;;;;;;9.53;8.00;;;10.30;1.00;;;;;;5107387;27;20844;-75
2024/02/12 12:15:37;;;;;;;9.17;8.27;;;10.40;1.00;;;;;;5092696;27;20996;-77
2024/02/12 12:18:05;;;;;;;9.13;7.70;;;10.40;1.00;;;;;;5101452;27;21309;-76
2024/02/12 12:20:34;;;;;;;10.10;7.30;;;10.70;1.00;;;;;;5104625;27;20461;-76
2024/02/12 12:23:09;;;;;;;9.73;7.07;;;11.20;1.00;;;;;;5107664;27;20446;-76
2024/02/12 12:25:36;;;;;;;9.33;7.47;;;11.80;1.00;;;;;;5080681;27;21345;-75
2024/02/12 12:28:05;;;;;;;8.60;7.37;;;12.80;1.00;;;;;;5104413;27;20472;-76
2024/02/12 12:30:32;;;;;;;7.70;6.90;;;13.80;1.00;;;;;;5086537;27;21060;-76
2024/02/12 12:33:01;;;;;;;9.77;7.43;;;14.20;1.00;;;;;;5100444;27;20776;-77
2024/02/12 12:35:28;;;;;;;8.23;7.10;;;14.60;1.00;;;;;;5100629;27;20987;-75
2024/02/12 12:38:00;;;;;;;8.83;7.97;;;15.80;1.00;;;;;;5108276;27;20458;-76
2024/02/12 12:40:31;;;;;;;7.10;6.40;;;17.40;1.00;;;;;;5102554;27;20469;-77
2024/02/12 12:43:00;;;;;;;7.40;6.67;;;18.70;1.00;;;;;;5097070;27;20463;-77
2024/02/12 12:45:28;;;;;;;8.00;6.70;;;19.50;1.00;;;;;;5099417;27;20472;-76
2024/02/12 12:47:55;;;;;;;7.30;6.60;;;18.90;1.00;;;;;;5104919;27;21468;-75
2024/02/12 12:50:22;;;;;;;8.07;6.80;;;18.70;1.00;;;;;;5100761;27;20557;-74
2024/02/12 12:52:49;;;;;;;9.13;7.60;;;17.80;1.00;;;;;;5103554;27;20462;-75
2024/02/12 12:55:17;;;;;;;7.97;7.17;;;16.30;1.00;;;;;;5101248;27;20461;-75
2024/02/12 12:57:47;;;;;;;13.00;8.97;;;15.00;1.00;;;;;;5088395;27;20477;-75
2024/02/12 13:00:21;;;;;;;7.50;6.70;;;13.50;1.00;;;;;;5102644;27;20503;-76
2024/02/12 13:02:49;;;;;;;9.90;7.67;;;12.40;1.00;;;;;;5103009;27;20447;-75
2024/02/12 13:05:18;;;;;;;11.53;10.23;;;11.30;1.00;;;;;;5098415;27;20961;-76
2024/02/12 13:07:46;;;;;;;11.00;9.47;;;10.60;1.00;;;;;;5107232;27;20406;-77
2024/02/12 13:10:13;;;;;;;11.20;8.37;;;10.20;1.00;;;;;;5106021;27;20999;-74
2024/02/12 13:12:43;;;;;;;10.70;8.30;;;9.90;1.00;;;;;;5088400;27;20870;-76
2024/02/12 13:15:12;;;;;;;10.67;8.53;;;9.70;1.00;;;;;;5100138;27;20498;-77